Time,TemperatureF,DewpointF,PressureIn,WindDirection,WindDirectionDegrees,WindSpeedMPH,WindSpeedGustMPH,Humidity,HourlyPrecipIn,Conditions,Clouds,dailyrainin,SoftwareType,DateUTC
2013-02-17 00:04:00,49.3,44.6,29.83,South,183,1.1,4.0,83,0.00,,,0.00,WSDL version 420,2013-02-17 08:04:00,
2013-02-17 00:09:00,49.3,44.5,29.83,WSW,253,3.1,5.4,84,0.00,,,0.00,WSDL version 420,2013-02-17 08:09:00,
2013-02-17 00:14:00,49.4,44.9,29.83,SSW,210,2.3,5.4,84,0.00,,,0.00,WSDL version 420,2013-02-17 08:14:00,
2013-02-17 00:19:00,49.5,45.1,29.83,SSW,208,3.6,5.6,86,0.00,,,0.00,WSDL version 420,2013-02-17 08:19:00,
2013-02-17 00:24:00,49.6,45.7,29.83,SSW,210,3.7,5.8,87,0.00,,,0.00,WSDL version 420,2013-02-17 08:24:00,
2013-02-17 00:29:00,49.6,46.2,29.83,South,188,5.4,9.2,89,0.00,,,0.00,WSDL version 420,2013-02-17 08:29:00,
2013-02-17 00:34:00,49.5,46.3,29.85,SSW,200,3.3,9.2,88,0.00,,,0.00,WSDL version 420,2013-02-17 08:34:00,
2013-02-17 00:39:00,49.3,45.9,29.85,SW,220,3.2,7.4,88,0.00,,,0.00,WSDL version 420,2013-02-17 08:39:00,
2013-02-17 00:44:00,49.2,45.4,29.85,West,265,2.4,5.4,87,0.00,,,0.00,WSDL version 420,2013-02-17 08:44:00,
2013-02-17 00:49:00,49.1,45.5,29.83,SSW,211,4.0,6.5,88,0.00,,,0.00,WSDL version 420,2013-02-17 08:49:00,
2013-02-17 00:54:00,49.0,45.9,29.83,SSW,203,4.2,7.6,89,0.00,,,0.00,WSDL version 420,2013-02-17 08:54:00,
2013-02-17 00:59:00,49.0,46.1,29.83,SW,215,3.9,7.6,89,0.00,,,0.00,WSDL version 420,2013-02-17 08:59:00,
2013-02-17 01:04:00,49.1,46.1,29.85,SSW,205,4.2,7.2,90,0.00,,,0.00,WSDL version 420,2013-02-17 09:04:00,
2013-02-17 01:09:00,49.0,46.4,29.85,SSW,208,3.7,7.2,91,0.00,,,0.00,WSDL version 420,2013-02-17 09:09:00,
2013-02-17 01:14:00,48.9,46.4,29.85,SW,215,3.0,6.5,91,0.00,,,0.00,WSDL version 420,2013-02-17 09:14:00,
2013-02-17 01:19:00,48.9,46.5,29.85,SW,231,4.1,6.3,91,0.00,,,0.00,WSDL version 420,2013-02-17 09:19:00,
2013-02-17 01:24:00,48.9,46.4,29.85,SSW,197,3.1,6.3,91,0.00,,,0.00,WSDL version 420,2013-02-17 09:24:00,
2013-02-17 01:29:00,48.8,46.5,29.85,SSW,203,3.4,6.3,92,0.00,,,0.00,WSDL version 420,2013-02-17 09:29:00,
2013-02-17 01:34:00,48.7,46.5,29.85,South,188,2.6,6.3,91,0.00,,,0.00,WSDL version 420,2013-02-17 09:34:00,
2013-02-17 01:39:00,48.6,46.1,29.85,South,180,2.6,5.6,91,0.00,,,0.00,WSDL version 420,2013-02-17 09:39:00,
2013-02-17 01:44:00,48.4,46.0,29.85,South,190,2.5,4.9,92,0.00,,,0.00,WSDL version 420,2013-02-17 09:44:00,
2013-02-17 01:49:00,48.5,46.4,29.83,SSW,200,4.6,6.5,92,0.00,,,0.00,WSDL version 420,2013-02-17 09:49:00,
2013-02-17 01:54:00,48.6,46.5,29.83,South,183,3.1,6.5,92,0.00,,,0.00,WSDL version 420,2013-02-17 09:54:00,
2013-02-17 01:59:00,48.6,46.4,29.83,SSW,210,3.0,6.0,92,0.00,,,0.00,WSDL version 420,2013-02-17 09:59:00,
2013-02-17 02:04:00,48.5,46.2,29.83,WSW,242,3.0,6.0,91,0.00,,,0.00,WSDL version 420,2013-02-17 10:04:00,
2013-02-17 02:09:00,48.5,46.0,29.83,West,260,2.4,4.3,91,0.00,,,0.00,WSDL version 420,2013-02-17 10:09:00,
2013-02-17 02:14:00,48.4,45.8,29.83,SSW,205,1.9,4.3,90,0.00,,,0.00,WSDL version 420,2013-02-17 10:14:00,
2013-02-17 02:19:00,48.2,45.4,29.83,South,188,2.3,4.3,90,0.00,,,0.00,WSDL version 420,2013-02-17 10:19:00,
2013-02-17 02:24:00,48.1,45.3,29.83,SSW,208,3.2,6.3,90,0.00,,,0.00,WSDL version 420,2013-02-17 10:24:00,
2013-02-17 02:29:00,48.2,45.5,29.83,SSW,198,2.7,6.3,91,0.00,,,0.00,WSDL version 420,2013-02-17 10:29:00,
2013-02-17 02:34:00,48.2,45.7,29.83,SSW,197,2.8,5.8,91,0.00,,,0.00,WSDL version 420,2013-02-17 10:34:00,
2013-02-17 02:39:00,48.2,45.9,29.83,South,177,4.7,8.1,92,0.00,,,0.00,WSDL version 420,2013-02-17 10:39:00,
2013-02-17 02:44:00,48.2,46.1,29.83,South,175,3.0,8.1,92,0.00,,,0.00,WSDL version 420,2013-02-17 10:44:00,
2013-02-17 02:49:00,48.2,46.5,29.83,SSW,203,5.6,9.6,94,0.00,,,0.00,WSDL version 420,2013-02-17 10:49:00,
2013-02-17 02:54:00,48.1,46.5,29.83,SSW,200,5.8,9.6,94,0.00,,,0.00,WSDL version 420,2013-02-17 10:54:00,
2013-02-17 02:59:00,48.2,46.7,29.83,SSW,210,3.4,7.6,94,0.00,,,0.00,WSDL version 420,2013-02-17 10:59:00,
2013-02-17 03:04:00,48.2,46.7,29.83,WSW,248,2.4,10.5,94,0.00,,,0.00,WSDL version 420,2013-02-17 11:04:00,
2013-02-17 03:09:00,48.2,46.9,29.83,SW,218,5.1,10.5,96,0.00,,,0.00,WSDL version 420,2013-02-17 11:09:00,
2013-02-17 03:14:00,48.1,46.9,29.83,South,191,4.3,7.8,96,0.00,,,0.00,WSDL version 420,2013-02-17 11:14:00,
2013-02-17 03:19:00,48.0,46.8,29.83,SSW,205,4.8,7.8,96,0.00,,,0.00,WSDL version 420,2013-02-17 11:19:00,
2013-02-17 03:24:00,47.8,46.6,29.83,SSW,212,3.9,7.8,96,0.00,,,0.00,WSDL version 420,2013-02-17 11:24:00,
2013-02-17 03:29:00,47.8,46.9,29.83,SSW,205,4.3,7.4,97,0.00,,,0.00,WSDL version 420,2013-02-17 11:29:00,
2013-02-17 03:34:00,47.8,46.9,29.80,SSW,203,5.0,7.6,97,0.00,,,0.00,WSDL version 420,2013-02-17 11:34:00,
2013-02-17 03:39:00,47.8,46.9,29.80,SSW,209,5.0,7.6,97,0.00,,,0.00,WSDL version 420,2013-02-17 11:39:00,
2013-02-17 03:44:00,47.8,46.9,29.80,SSW,195,3.9,6.5,97,0.00,,,0.00,WSDL version 420,2013-02-17 11:44:00,
2013-02-17 03:49:00,47.7,46.8,29.80,SSW,197,3.8,6.3,97,0.00,,,0.00,WSDL version 420,2013-02-17 11:49:00,
2013-02-17 03:54:00,47.7,46.6,29.80,WSW,239,2.6,6.3,96,0.00,,,0.00,WSDL version 420,2013-02-17 11:54:00,
2013-02-17 03:59:00,47.6,46.4,29.80,NNW,338,2.3,6.0,96,0.00,,,0.00,WSDL version 420,2013-02-17 11:59:00,
2013-02-17 04:04:00,47.5,46.3,29.80,SSW,195,3.3,6.9,96,0.00,,,0.00,WSDL version 420,2013-02-17 12:04:00,
2013-02-17 04:09:00,47.7,46.8,29.80,SSW,205,3.7,7.4,97,0.00,,,0.00,WSDL version 420,2013-02-17 12:09:00,
2013-02-17 04:14:00,47.5,46.6,29.80,SSW,194,3.4,7.4,97,0.00,,,0.00,WSDL version 420,2013-02-17 12:14:00,
2013-02-17 04:19:00,47.5,46.6,29.83,SSW,193,3.2,5.4,97,0.00,,,0.00,WSDL version 420,2013-02-17 12:19:00,
2013-02-17 04:24:00,47.3,46.4,29.83,South,191,2.9,5.4,97,0.00,,,0.00,WSDL version 420,2013-02-17 12:24:00,
2013-02-17 04:29:00,47.3,46.4,29.83,South,188,2.6,5.4,97,0.00,,,0.00,WSDL version 420,2013-02-17 12:29:00,
2013-02-17 04:34:00,47.3,46.4,29.80,SSW,203,3.2,5.4,97,0.00,,,0.00,WSDL version 420,2013-02-17 12:34:00,
2013-02-17 04:39:00,47.3,46.4,29.80,SW,225,2.9,5.4,97,0.00,,,0.00,WSDL version 420,2013-02-17 12:39:00,
2013-02-17 04:44:00,47.3,46.2,29.80,South,190,2.3,4.3,96,0.00,,,0.00,WSDL version 420,2013-02-17 12:44:00,
2013-02-17 04:49:00,47.0,45.8,29.80,SW,225,2.1,4.3,96,0.00,,,0.00,WSDL version 420,2013-02-17 12:49:00,
2013-02-17 04:54:00,46.9,45.7,29.80,SSW,205,2.8,4.3,96,0.00,,,0.00,WSDL version 420,2013-02-17 12:54:00,
2013-02-17 04:59:00,46.9,45.6,29.80,NW,326,1.5,3.8,94,0.00,,,0.00,WSDL version 420,2013-02-17 12:59:00,
2013-02-17 05:04:00,46.7,45.1,29.83,SSW,210,1.2,3.6,94,0.00,,,0.00,WSDL version 420,2013-02-17 13:04:00,
2013-02-17 05:09:00,46.6,45.0,29.83,South,188,2.7,6.3,94,0.00,,,0.00,WSDL version 420,2013-02-17 13:09:00,
2013-02-17 05:14:00,46.7,45.2,29.83,SSW,211,2.3,6.3,94,0.00,,,0.00,WSDL version 420,2013-02-17 13:14:00,
2013-02-17 05:19:00,46.7,45.1,29.83,SSW,205,1.9,3.6,93,0.00,,,0.00,WSDL version 420,2013-02-17 13:19:00,
2013-02-17 05:24:00,46.6,44.8,29.83,SW,217,1.8,2.9,93,0.00,,,0.00,WSDL version 420,2013-02-17 13:24:00,
2013-02-17 05:29:00,46.6,44.8,29.83,SSW,211,2.5,4.5,93,0.00,,,0.00,WSDL version 420,2013-02-17 13:29:00,
2013-02-17 05:34:00,46.5,44.7,29.83,SSW,198,2.2,4.7,93,0.00,,,0.00,WSDL version 420,2013-02-17 13:34:00,
2013-02-17 05:39:00,46.4,44.6,29.83,South,191,2.1,4.7,94,0.00,,,0.00,WSDL version 420,2013-02-17 13:39:00,
2013-02-17 05:44:00,46.4,44.7,29.83,South,183,1.5,3.6,93,0.00,,,0.00,WSDL version 420,2013-02-17 13:44:00,
2013-02-17 05:49:00,46.3,44.5,29.80,SSW,205,0.8,3.1,93,0.00,,,0.00,WSDL version 420,2013-02-17 13:49:00,
2013-02-17 05:54:00,46.2,44.4,29.80,SSW,210,1.2,2.7,93,0.00,,,0.00,WSDL version 420,2013-02-17 13:54:00,
2013-02-17 05:59:00,46.1,44.3,29.80,SW,215,1.4,3.1,93,0.00,,,0.00,WSDL version 420,2013-02-17 13:59:00,
2013-02-17 06:04:00,45.9,44.0,29.83,South,173,1.3,3.1,92,0.00,,,0.00,WSDL version 420,2013-02-17 14:04:00,
2013-02-17 06:09:00,45.7,43.5,29.83,South,180,0.8,3.1,92,0.00,,,0.00,WSDL version 420,2013-02-17 14:09:00,
2013-02-17 06:14:00,45.5,43.4,29.83,South,191,0.0,2.7,92,0.00,,,0.00,WSDL version 420,2013-02-17 14:14:00,
2013-02-17 06:19:00,45.4,43.5,29.83,SSW,213,1.7,2.7,93,0.00,,,0.00,WSDL version 420,2013-02-17 14:19:00,
2013-02-17 06:24:00,45.5,43.7,29.83,SSW,203,0.0,2.7,93,0.00,,,0.00,WSDL version 420,2013-02-17 14:24:00,
2013-02-17 06:29:00,45.3,43.5,29.83,South,183,0.2,2.2,93,0.00,,,0.00,WSDL version 420,2013-02-17 14:29:00,
2013-02-17 06:34:00,44.9,42.8,29.83,SSW,203,0.0,2.2,92,0.00,,,0.00,WSDL version 420,2013-02-17 14:34:00,
2013-02-17 06:39:00,44.8,42.7,29.83,SSW,203,0.0,1.6,92,0.00,,,0.00,WSDL version 420,2013-02-17 14:39:00,
2013-02-17 06:44:00,44.6,42.5,29.83,South,186,0.0,1.6,92,0.00,,,0.00,WSDL version 420,2013-02-17 14:44:00,
2013-02-17 06:49:00,44.4,42.3,29.83,SSW,203,0.0,1.6,92,0.00,,,0.00,WSDL version 420,2013-02-17 14:49:00,
2013-02-17 06:54:00,44.3,42.2,29.83,ESE,116,1.3,2.0,92,0.00,,,0.00,WSDL version 420,2013-02-17 14:54:00,
2013-02-17 06:59:00,44.2,42.3,29.83,SSW,203,0.6,2.0,93,0.00,,,0.00,WSDL version 420,2013-02-17 14:59:00,
2013-02-17 07:04:00,44.2,42.4,29.83,South,180,1.1,2.5,93,0.00,,,0.00,WSDL version 420,2013-02-17 15:04:00,
2013-02-17 07:09:00,44.1,42.3,29.83,SSW,203,0.8,2.5,93,0.00,,,0.00,WSDL version 420,2013-02-17 15:09:00,
2013-02-17 07:14:00,44.1,42.1,29.83,SSW,205,2.1,2.7,93,0.00,,,0.00,WSDL version 420,2013-02-17 15:14:00,
2013-02-17 07:19:00,44.1,42.2,29.83,SSW,193,1.2,2.7,93,0.00,,,0.00,WSDL version 420,2013-02-17 15:19:00,
2013-02-17 07:24:00,43.9,42.1,29.83,South,180,0.0,2.2,93,0.00,,,0.00,WSDL version 420,2013-02-17 15:24:00,
2013-02-17 07:29:00,43.8,41.7,29.83,SSE,160,1.3,2.7,92,0.00,,,0.00,WSDL version 420,2013-02-17 15:29:00,
2013-02-17 07:34:00,43.9,41.8,29.85,SSE,158,0.0,2.7,93,0.00,,,0.00,WSDL version 420,2013-02-17 15:34:00,
2013-02-17 07:39:00,44.0,42.2,29.85,SSE,158,0.1,1.6,93,0.00,,,0.00,WSDL version 420,2013-02-17 15:39:00,
2013-02-17 07:44:00,44.1,42.3,29.85,SSE,158,0.0,1.6,93,0.00,,,0.00,WSDL version 420,2013-02-17 15:44:00,
2013-02-17 07:49:00,44.2,42.4,29.85,SSE,158,0.9,1.6,93,0.00,,,0.00,WSDL version 420,2013-02-17 15:49:00,
2013-02-17 07:54:00,44.4,42.6,29.85,SSE,158,0.0,1.6,93,0.00,,,0.00,WSDL version 420,2013-02-17 15:54:00,
2013-02-17 07:59:00,44.7,42.9,29.85,ESE,118,1.3,2.0,93,0.00,,,0.00,WSDL version 420,2013-02-17 15:59:00,
2013-02-17 08:04:00,45.0,43.2,29.85,South,180,0.2,2.0,93,0.00,,,0.00,WSDL version 420,2013-02-17 16:04:00,
2013-02-17 08:09:00,45.4,43.8,29.85,SE,135,1.0,1.6,94,0.00,,,0.00,WSDL version 420,2013-02-17 16:09:00,
2013-02-17 08:14:00,46.0,44.4,29.85,SSE,166,1.3,2.0,94,0.00,,,0.00,WSDL version 420,2013-02-17 16:14:00,
2013-02-17 08:19:00,46.5,45.0,29.85,South,180,0.0,2.5,94,0.00,,,0.00,WSDL version 420,2013-02-17 16:19:00,
2013-02-17 08:24:00,47.2,45.7,29.85,South,180,0.0,2.5,94,0.00,,,0.00,WSDL version 420,2013-02-17 16:24:00,
2013-02-17 08:29:00,49.1,47.8,29.85,SSE,163,1.6,2.7,96,0.00,,,0.00,WSDL version 420,2013-02-17 16:29:00,
2013-02-17 08:34:00,50.8,49.5,29.85,South,175,2.2,3.1,94,0.00,,,0.00,WSDL version 420,2013-02-17 16:34:00,
2013-02-17 08:39:00,52.0,48.4,29.85,SSE,163,3.2,4.7,81,0.00,,,0.00,WSDL version 420,2013-02-17 16:39:00,
2013-02-17 08:44:00,53.1,45.4,29.85,South,173,2.7,4.7,74,0.00,,,0.00,WSDL version 420,2013-02-17 16:44:00,
2013-02-17 08:49:00,53.7,44.2,29.85,South,180,2.6,4.3,69,0.00,,,0.00,WSDL version 420,2013-02-17 16:49:00,
2013-02-17 08:54:00,54.3,43.9,29.85,SSE,163,2.8,4.3,67,0.00,,,0.00,WSDL version 420,2013-02-17 16:54:00,
2013-02-17 08:59:00,55.0,44.1,29.85,SSE,160,2.0,4.3,67,0.00,,,0.00,WSDL version 420,2013-02-17 16:59:00,
2013-02-17 09:04:00,55.9,44.7,29.85,South,170,1.9,3.4,65,0.00,,,0.00,WSDL version 420,2013-02-17 17:04:00,
2013-02-17 09:09:00,56.5,44.3,29.85,SE,141,2.0,3.4,63,0.00,,,0.00,WSDL version 420,2013-02-17 17:09:00,
2013-02-17 09:14:00,57.0,45.1,29.85,South,169,1.4,3.1,65,0.00,,,0.00,WSDL version 420,2013-02-17 17:14:00,
2013-02-17 09:19:00,57.3,44.8,29.85,SW,236,2.5,3.8,62,0.00,,,0.00,WSDL version 420,2013-02-17 17:19:00,
2013-02-17 09:24:00,57.4,44.5,29.85,SW,225,1.9,3.8,61,0.00,,,0.00,WSDL version 420,2013-02-17 17:24:00,
2013-02-17 09:29:00,57.6,43.6,29.85,SSE,163,2.3,4.0,60,0.00,,,0.00,WSDL version 420,2013-02-17 17:29:00,
2013-02-17 09:34:00,57.6,43.9,29.85,South,188,2.8,4.3,61,0.00,,,0.00,WSDL version 420,2013-02-17 17:34:00,
2013-02-17 09:39:00,57.6,44.0,29.85,East,90,1.8,4.3,60,0.00,,,0.00,WSDL version 420,2013-02-17 17:39:00,
2013-02-17 09:44:00,57.5,44.4,29.85,WNW,288,1.7,3.8,61,0.00,,,0.00,WSDL version 420,2013-02-17 17:44:00,
2013-02-17 09:49:00,57.6,44.0,29.85,North,6,2.0,3.4,61,0.00,,,0.00,WSDL version 420,2013-02-17 17:49:00,
2013-02-17 09:54:00,58.3,44.5,29.85,SW,235,1.2,3.4,60,0.00,,,0.00,WSDL version 420,2013-02-17 17:54:00,
2013-02-17 09:59:00,58.6,44.1,29.85,WNW,290,2.1,4.0,57,0.00,,,0.00,WSDL version 420,2013-02-17 17:59:00,
2013-02-17 10:04:00,57.1,41.5,29.85,West,276,2.9,4.0,57,0.00,,,0.00,WSDL version 420,2013-02-17 18:04:00,
2013-02-17 10:09:00,56.6,41.9,29.85,NNW,338,1.8,4.0,58,0.00,,,0.00,WSDL version 420,2013-02-17 18:09:00,
2013-02-17 10:14:00,56.2,42.1,29.85,NW,326,2.7,4.0,60,0.00,,,0.00,WSDL version 420,2013-02-17 18:14:00,
2013-02-17 10:19:00,55.6,42.1,29.85,North,360,2.5,4.0,62,0.00,,,0.00,WSDL version 420,2013-02-17 18:19:00,
2013-02-17 10:24:00,55.1,43.0,29.85,NNW,341,3.7,4.7,65,0.00,,,0.00,WSDL version 420,2013-02-17 18:24:00,
2013-02-17 10:29:00,55.1,43.4,29.85,NNE,18,3.3,4.7,65,0.00,,,0.00,WSDL version 420,2013-02-17 18:29:00,
2013-02-17 10:34:00,55.6,44.0,29.85,North,352,3.5,4.5,65,0.00,,,0.00,WSDL version 420,2013-02-17 18:34:00,
2013-02-17 10:39:00,55.5,43.9,29.85,NNW,338,2.9,5.8,65,0.00,,,0.00,WSDL version 420,2013-02-17 18:39:00,
2013-02-17 10:44:00,56.0,44.3,29.85,NNW,343,2.9,5.8,65,0.00,,,0.00,WSDL version 420,2013-02-17 18:44:00,
2013-02-17 10:49:00,56.6,44.5,29.85,NNW,340,2.1,3.6,64,0.00,,,0.00,WSDL version 420,2013-02-17 18:49:00,
2013-02-17 10:54:00,56.8,42.5,29.85,North,360,3.7,5.8,57,0.00,,,0.00,WSDL version 420,2013-02-17 18:54:00,
2013-02-17 10:59:00,56.7,42.2,29.85,NNW,338,3.5,5.8,58,0.00,,,0.00,WSDL version 420,2013-02-17 18:59:00,
2013-02-17 11:04:00,56.6,41.8,29.83,North,358,3.8,4.9,57,0.00,,,0.00,WSDL version 420,2013-02-17 19:04:00,
2013-02-17 11:09:00,56.4,41.4,29.83,North,354,4.1,5.6,57,0.00,,,0.00,WSDL version 420,2013-02-17 19:09:00,
2013-02-17 11:14:00,56.4,40.8,29.83,NNW,343,3.6,5.6,56,0.00,,,0.00,WSDL version 420,2013-02-17 19:14:00,
2013-02-17 11:19:00,57.0,41.8,29.85,NNW,343,3.8,5.4,56,0.00,,,0.00,WSDL version 420,2013-02-17 19:19:00,
2013-02-17 11:24:00,57.1,41.0,29.85,NNW,343,3.8,5.4,55,0.00,,,0.00,WSDL version 420,2013-02-17 19:24:00,
2013-02-17 11:29:00,57.1,40.7,29.85,NNW,345,4.2,5.6,54,0.00,,,0.00,WSDL version 420,2013-02-17 19:29:00,
2013-02-17 11:34:00,57.1,40.5,29.83,NNW,331,3.5,5.6,54,0.00,,,0.00,WSDL version 420,2013-02-17 19:34:00,
2013-02-17 11:39:00,56.9,40.8,29.83,NNW,338,2.8,5.6,55,0.00,,,0.00,WSDL version 420,2013-02-17 19:39:00,
2013-02-17 11:44:00,57.1,41.0,29.83,North,355,4.2,5.6,55,0.00,,,0.00,WSDL version 420,2013-02-17 19:44:00,
2013-02-17 11:49:00,57.5,41.5,29.83,North,354,3.7,5.4,55,0.00,,,0.00,WSDL version 420,2013-02-17 19:49:00,
2013-02-17 11:54:00,58.0,42.7,29.83,NNW,332,2.5,5.4,57,0.00,,,0.00,WSDL version 420,2013-02-17 19:54:00,
2013-02-17 12:04:00,58.7,43.4,29.83,WNW,290,3.0,5.6,57,0.00,,,0.00,WSDL version 420,2013-02-17 20:04:00,
2013-02-17 12:09:00,60.4,45.3,29.83,NNW,338,1.9,5.6,57,0.00,,,0.00,WSDL version 420,2013-02-17 20:09:00,
2013-02-17 12:14:00,61.0,44.3,29.83,West,260,3.8,6.3,53,0.00,,,0.00,WSDL version 420,2013-02-17 20:14:00,
2013-02-17 12:19:00,61.8,43.7,29.83,NW,323,3.0,6.3,50,0.00,,,0.00,WSDL version 420,2013-02-17 20:19:00,
2013-02-17 12:24:00,61.7,42.9,29.83,NW,309,2.9,4.9,49,0.00,,,0.00,WSDL version 420,2013-02-17 20:24:00,
2013-02-17 12:29:00,61.9,42.7,29.83,NW,323,2.6,4.9,49,0.00,,,0.00,WSDL version 420,2013-02-17 20:29:00,
2013-02-17 12:34:00,62.7,43.3,29.80,SW,217,2.5,4.9,49,0.00,,,0.00,WSDL version 420,2013-02-17 20:34:00,
2013-02-17 12:39:00,64.2,43.6,29.80,SW,215,3.1,6.5,47,0.00,,,0.00,WSDL version 420,2013-02-17 20:39:00,
2013-02-17 12:44:00,65.4,43.9,29.80,SSW,208,2.8,6.5,45,0.00,,,0.00,WSDL version 420,2013-02-17 20:44:00,
2013-02-17 12:49:00,65.8,43.5,29.80,SSW,203,2.8,6.0,44,0.00,,,0.00,WSDL version 420,2013-02-17 20:49:00,
2013-02-17 12:54:00,65.2,42.3,29.80,West,260,2.7,6.0,44,0.00,,,0.00,WSDL version 420,2013-02-17 20:54:00,
2013-02-17 13:04:00,66.1,41.5,29.80,WNW,303,2.7,6.0,41,0.00,,,0.00,WSDL version 420,2013-02-17 21:04:00,
2013-02-17 13:09:00,66.4,41.9,29.80,WSW,245,2.0,4.3,41,0.00,,,0.00,WSDL version 420,2013-02-17 21:09:00,
2013-02-17 13:14:00,66.6,41.6,29.80,WSW,240,4.0,7.2,40,0.00,,,0.00,WSDL version 420,2013-02-17 21:14:00,
2013-02-17 13:19:00,66.1,40.8,29.80,WSW,238,3.4,7.2,39,0.00,,,0.00,WSDL version 420,2013-02-17 21:19:00,
2013-02-17 13:24:00,66.0,40.2,29.80,WSW,258,3.5,6.0,39,0.00,,,0.00,WSDL version 420,2013-02-17 21:24:00,
2013-02-17 13:29:00,65.7,40.4,29.80,SSW,211,3.7,7.2,39,0.00,,,0.00,WSDL version 420,2013-02-17 21:29:00,
2013-02-17 13:34:00,65.8,39.9,29.80,West,259,3.3,7.2,38,0.00,,,0.00,WSDL version 420,2013-02-17 21:34:00,
2013-02-17 13:39:00,65.2,39.3,29.80,SW,230,1.9,6.3,39,0.00,,,0.00,WSDL version 420,2013-02-17 21:39:00,
2013-02-17 13:44:00,65.8,40.1,29.80,WSW,242,3.2,6.0,38,0.00,,,0.00,WSDL version 420,2013-02-17 21:44:00,
2013-02-17 13:49:00,65.8,39.6,29.80,SW,231,2.9,6.0,38,0.00,,,0.00,WSDL version 420,2013-02-17 21:49:00,
2013-02-17 13:54:00,66.0,39.9,29.80,WNW,295,2.6,4.9,38,0.00,,,0.00,WSDL version 420,2013-02-17 21:54:00,
2013-02-17 13:59:00,65.9,39.6,29.80,SW,220,2.9,5.4,38,0.00,,,0.00,WSDL version 420,2013-02-17 21:59:00,
2013-02-17 14:04:00,65.7,38.5,29.77,South,188,3.8,6.0,36,0.00,,,0.00,WSDL version 420,2013-02-17 22:04:00,
2013-02-17 14:09:00,65.7,38.9,29.77,NW,313,2.9,6.0,37,0.00,,,0.00,WSDL version 420,2013-02-17 22:09:00,
2013-02-17 14:14:00,64.6,37.6,29.77,SW,220,3.5,6.7,37,0.00,,,0.00,WSDL version 420,2013-02-17 22:14:00,
2013-02-17 14:19:00,65.2,38.6,29.77,WNW,301,3.0,6.7,37,0.00,,,0.00,WSDL version 420,2013-02-17 22:19:00,
2013-02-17 14:24:00,65.2,38.3,29.77,SSE,163,3.8,6.3,37,0.00,,,0.00,WSDL version 420,2013-02-17 22:24:00,
2013-02-17 14:29:00,65.8,39.3,29.77,SW,236,2.6,6.3,37,0.00,,,0.00,WSDL version 420,2013-02-17 22:29:00,
2013-02-17 14:34:00,66.2,39.2,29.77,SW,223,3.4,6.0,37,0.00,,,0.00,WSDL version 420,2013-02-17 22:34:00,
2013-02-17 14:39:00,66.1,39.1,29.77,SW,225,4.0,8.1,37,0.00,,,0.00,WSDL version 420,2013-02-17 22:39:00,
2013-02-17 14:44:00,65.9,38.9,29.77,West,259,2.9,8.1,37,0.00,,,0.00,WSDL version 420,2013-02-17 22:44:00,
2013-02-17 14:49:00,65.6,38.6,29.77,SW,228,2.9,7.2,37,0.00,,,0.00,WSDL version 420,2013-02-17 22:49:00,
2013-02-17 14:54:00,65.7,39.0,29.77,SW,228,1.8,7.2,37,0.00,,,0.00,WSDL version 420,2013-02-17 22:54:00,
2013-02-17 14:59:00,65.7,38.8,29.77,SSW,203,3.9,5.8,37,0.00,,,0.00,WSDL version 420,2013-02-17 22:59:00,
2013-02-17 15:04:00,65.2,37.9,29.77,SW,219,3.0,6.5,37,0.00,,,0.00,WSDL version 420,2013-02-17 23:04:00,
2013-02-17 15:09:00,65.1,38.2,29.77,SSW,213,3.9,6.5,37,0.00,,,0.00,WSDL version 420,2013-02-17 23:09:00,
2013-02-17 15:14:00,64.9,37.8,29.77,SW,225,4.1,6.5,37,0.00,,,0.00,WSDL version 420,2013-02-17 23:14:00,
2013-02-17 15:19:00,64.9,37.8,29.77,SSE,158,2.3,6.5,37,0.00,,,0.00,WSDL version 420,2013-02-17 23:19:00,
2013-02-17 15:24:00,65.0,37.7,29.77,SW,230,3.9,5.6,36,0.00,,,0.00,WSDL version 420,2013-02-17 23:24:00,
2013-02-17 15:29:00,64.6,37.1,29.77,SSW,200,2.7,5.6,36,0.00,,,0.00,WSDL version 420,2013-02-17 23:29:00,
2013-02-17 15:34:00,64.5,37.1,29.77,SSW,198,3.2,5.6,36,0.00,,,0.00,WSDL version 420,2013-02-17 23:34:00,
2013-02-17 15:39:00,64.3,37.0,29.77,SW,233,1.7,5.6,37,0.00,,,0.00,WSDL version 420,2013-02-17 23:39:00,
2013-02-17 15:44:00,64.1,36.7,29.77,SSW,200,2.4,4.3,36,0.00,,,0.00,WSDL version 420,2013-02-17 23:44:00,
2013-02-17 15:49:00,64.1,36.7,29.77,SSW,213,2.5,4.3,37,0.00,,,0.00,WSDL version 420,2013-02-17 23:49:00,
2013-02-17 15:54:00,64.0,36.6,29.77,SSW,205,3.5,6.0,36,0.00,,,0.00,WSDL version 420,2013-02-17 23:54:00,
2013-02-17 15:59:00,63.6,36.3,29.77,SSE,168,2.8,6.0,36,0.00,,,0.00,WSDL version 420,2013-02-17 23:59:00,
2013-02-17 16:04:00,63.2,35.8,29.77,SW,222,3.0,5.8,36,0.00,,,0.00,WSDL version 420,2013-02-18 00:04:00,
2013-02-17 16:09:00,62.9,35.5,29.77,SSW,203,3.2,6.0,36,0.00,,,0.00,WSDL version 420,2013-02-18 00:09:00,
2013-02-17 16:14:00,62.6,35.5,29.77,SSW,197,3.7,6.0,37,0.00,,,0.00,WSDL version 420,2013-02-18 00:14:00,
2013-02-17 16:19:00,62.2,35.6,29.77,SSW,205,4.0,6.3,37,0.00,,,0.00,WSDL version 420,2013-02-18 00:19:00,
2013-02-17 16:24:00,61.8,35.3,29.77,SSW,200,4.6,6.5,37,0.00,,,0.00,WSDL version 420,2013-02-18 00:24:00,
2013-02-17 16:29:00,61.6,35.5,29.77,SSW,197,3.9,6.5,38,0.00,,,0.00,WSDL version 420,2013-02-18 00:29:00,
2013-02-17 16:34:00,61.3,35.6,29.77,SW,217,2.6,5.4,39,0.00,,,0.00,WSDL version 420,2013-02-18 00:34:00,
2013-02-17 16:39:00,61.1,35.3,29.77,SSW,208,2.9,5.6,38,0.00,,,0.00,WSDL version 420,2013-02-18 00:39:00,
2013-02-17 16:44:00,60.9,35.1,29.77,SSW,195,3.7,6.0,38,0.00,,,0.00,WSDL version 420,2013-02-18 00:44:00,
2013-02-17 16:49:00,60.6,35.1,29.77,SSW,206,3.8,6.3,39,0.00,,,0.00,WSDL version 420,2013-02-18 00:49:00,
2013-02-17 16:54:00,60.3,35.3,29.77,SW,218,4.2,6.3,39,0.00,,,0.00,WSDL version 420,2013-02-18 00:54:00,
2013-02-17 16:59:00,59.9,34.9,29.77,SSW,205,3.8,5.8,39,0.00,,,0.00,WSDL version 420,2013-02-18 00:59:00,
2013-02-17 17:04:00,59.5,34.8,29.77,SSW,198,3.6,6.7,40,0.00,,,0.00,WSDL version 420,2013-02-18 01:04:00,
2013-02-17 17:09:00,59.2,34.9,29.77,SSW,198,3.5,6.7,40,0.00,,,0.00,WSDL version 420,2013-02-18 01:09:00,
2013-02-17 17:14:00,58.9,35.0,29.77,SSW,197,3.5,6.0,41,0.00,,,0.00,WSDL version 420,2013-02-18 01:14:00,
2013-02-17 17:19:00,58.4,35.2,29.77,SSW,205,4.3,8.5,42,0.00,,,0.00,WSDL version 420,2013-02-18 01:19:00,
2013-02-17 17:24:00,58.0,35.8,29.77,SW,217,4.0,8.5,44,0.00,,,0.00,WSDL version 420,2013-02-18 01:24:00,
2013-02-17 17:29:00,57.7,35.9,29.77,SSW,208,3.9,6.5,44,0.00,,,0.00,WSDL version 420,2013-02-18 01:29:00,
2013-02-17 17:34:00,57.4,36.2,29.77,SSW,210,4.6,6.5,45,0.00,,,0.00,WSDL version 420,2013-02-18 01:34:00,
2013-02-17 17:39:00,57.1,36.0,29.77,South,190,3.4,7.4,45,0.00,,,0.00,WSDL version 420,2013-02-18 01:39:00,
2013-02-17 17:44:00,56.8,35.7,29.77,SSW,213,4.3,7.4,45,0.00,,,0.00,WSDL version 420,2013-02-18 01:44:00,
2013-02-17 17:49:00,56.5,35.5,29.77,SSW,200,4.4,6.3,45,0.00,,,0.00,WSDL version 420,2013-02-18 01:49:00,
2013-02-17 17:54:00,56.3,35.4,29.77,SSW,203,3.7,6.3,46,0.00,,,0.00,WSDL version 420,2013-02-18 01:54:00,
2013-02-17 17:59:00,56.1,35.7,29.77,SW,217,4.1,7.6,47,0.00,,,0.00,WSDL version 420,2013-02-18 01:59:00,
2013-02-17 18:04:00,55.8,35.9,29.77,SSW,203,3.3,7.6,47,0.00,,,0.00,WSDL version 420,2013-02-18 02:04:00,
2013-02-17 18:14:00,55.2,35.8,29.77,SSW,199,1.9,4.3,48,0.00,,,0.00,WSDL version 420,2013-02-18 02:14:00,
2013-02-17 18:19:00,54.9,35.6,29.77,South,186,2.3,2.9,48,0.00,,,0.00,WSDL version 420,2013-02-18 02:19:00,
2013-02-17 18:24:00,54.6,35.3,29.77,South,169,2.4,3.6,48,0.00,,,0.00,WSDL version 420,2013-02-18 02:24:00,
2013-02-17 18:29:00,54.3,35.3,29.77,SSE,165,2.4,4.3,49,0.00,,,0.00,WSDL version 420,2013-02-18 02:29:00,
2013-02-17 18:34:00,54.1,35.4,29.77,South,174,2.3,4.3,49,0.00,,,0.00,WSDL version 420,2013-02-18 02:34:00,
2013-02-17 18:39:00,54.0,35.3,29.77,South,178,2.2,3.4,49,0.00,,,0.00,WSDL version 420,2013-02-18 02:39:00,
2013-02-17 18:44:00,53.8,35.1,29.77,South,177,2.4,3.6,49,0.00,,,0.00,WSDL version 420,2013-02-18 02:44:00,
2013-02-17 18:49:00,53.6,34.9,29.77,South,170,2.1,3.6,49,0.00,,,0.00,WSDL version 420,2013-02-18 02:49:00,
2013-02-17 18:54:00,53.5,34.9,29.77,South,188,1.4,3.6,49,0.00,,,0.00,WSDL version 420,2013-02-18 02:54:00,
2013-02-17 18:59:00,53.5,34.9,29.77,SSW,211,2.1,3.6,49,0.00,,,0.00,WSDL version 420,2013-02-18 02:59:00,
2013-02-17 19:04:00,53.6,34.9,29.77,SW,228,1.5,3.8,49,0.00,,,0.00,WSDL version 420,2013-02-18 03:04:00,
2013-02-17 19:09:00,53.4,34.7,29.77,NW,321,1.3,3.8,49,0.00,,,0.00,WSDL version 420,2013-02-18 03:09:00,
2013-02-17 19:14:00,53.0,34.8,29.77,WNW,295,0.9,2.9,50,0.00,,,0.00,WSDL version 420,2013-02-18 03:14:00,
2013-02-17 19:19:00,52.7,34.6,29.77,West,270,0.0,2.9,50,0.00,,,0.00,WSDL version 420,2013-02-18 03:19:00,
2013-02-17 19:24:00,52.4,34.3,29.77,WNW,293,1.3,2.0,50,0.00,,,0.00,WSDL version 420,2013-02-18 03:24:00,
2013-02-17 19:29:00,52.2,34.4,29.77,WNW,293,0.0,2.0,51,0.00,,,0.00,WSDL version 420,2013-02-18 03:29:00,
2013-02-17 19:39:00,51.9,34.8,29.77,SW,228,0.7,2.0,51,0.00,,,0.00,WSDL version 420,2013-02-18 03:39:00,
2013-02-17 19:44:00,51.7,34.9,29.77,WSW,245,0.0,1.6,53,0.00,,,0.00,WSDL version 420,2013-02-18 03:44:00,
2013-02-17 19:54:00,51.4,34.9,29.80,SW,220,1.2,1.6,53,0.00,,,0.00,WSDL version 420,2013-02-18 03:54:00,
2013-02-17 19:59:00,51.0,34.9,29.80,SW,225,0.0,1.6,55,0.00,,,0.00,WSDL version 420,2013-02-18 03:59:00,
2013-02-17 20:04:00,50.6,34.8,29.80,West,260,0.2,1.6,55,0.00,,,0.00,WSDL version 420,2013-02-18 04:04:00,
2013-02-17 20:09:00,50.4,34.9,29.80,WNW,293,0.0,1.6,56,0.00,,,0.00,WSDL version 420,2013-02-18 04:09:00,
2013-02-17 20:14:00,50.4,35.3,29.80,West,278,0.0,1.3,56,0.00,,,0.00,WSDL version 420,2013-02-18 04:14:00,
2013-02-17 20:19:00,50.3,35.6,29.77,SW,233,0.0,0.0,58,0.00,,,0.00,WSDL version 420,2013-02-18 04:19:00,
2013-02-17 20:24:00,50.1,35.9,29.77,South,180,0.0,0.0,58,0.00,,,0.00,WSDL version 420,2013-02-18 04:24:00,
2013-02-17 20:29:00,50.0,35.8,29.77,South,180,0.0,0.0,58,0.00,,,0.00,WSDL version 420,2013-02-18 04:29:00,
2013-02-17 20:34:00,49.9,35.7,29.77,East,90,0.4,1.6,58,0.00,,,0.00,WSDL version 420,2013-02-18 04:34:00,
2013-02-17 20:39:00,49.6,35.5,29.77,East,90,0.0,1.6,58,0.00,,,0.00,WSDL version 420,2013-02-18 04:39:00,
2013-02-17 20:44:00,49.4,35.6,29.77,East,98,1.3,2.0,59,0.00,,,0.00,WSDL version 420,2013-02-18 04:44:00,
2013-02-17 20:49:00,49.3,35.4,29.80,East,100,1.8,2.5,59,0.00,,,0.00,WSDL version 420,2013-02-18 04:49:00,
2013-02-17 20:54:00,49.2,35.3,29.80,East,90,1.6,2.5,59,0.00,,,0.00,WSDL version 420,2013-02-18 04:54:00,
2013-02-17 20:59:00,49.0,35.3,29.80,ESE,108,1.2,2.2,59,0.00,,,0.00,WSDL version 420,2013-02-18 04:59:00,
2013-02-17 21:04:00,48.8,35.2,29.80,East,90,1.0,2.2,59,0.00,,,0.00,WSDL version 420,2013-02-18 05:04:00,
2013-02-17 21:09:00,48.7,35.1,29.80,East,90,1.0,2.2,59,0.00,,,0.00,WSDL version 420,2013-02-18 05:09:00,
2013-02-17 21:14:00,48.6,34.8,29.80,ESE,115,1.8,2.5,59,0.00,,,0.00,WSDL version 420,2013-02-18 05:14:00,
2013-02-17 21:19:00,48.4,34.8,29.80,East,93,1.8,2.7,60,0.00,,,0.00,WSDL version 420,2013-02-18 05:19:00,
2013-02-17 21:24:00,48.2,35.0,29.80,East,98,2.2,3.6,61,0.00,,,0.00,WSDL version 420,2013-02-18 05:24:00,
2013-02-17 21:29:00,48.1,35.3,29.80,ESE,118,2.7,3.6,61,0.00,,,0.00,WSDL version 420,2013-02-18 05:29:00,
2013-02-17 21:34:00,47.8,35.1,29.80,ESE,113,2.1,3.6,61,0.00,,,0.00,WSDL version 420,2013-02-18 05:34:00,
2013-02-17 21:39:00,47.7,34.9,29.80,ESE,115,2.7,3.4,61,0.00,,,0.00,WSDL version 420,2013-02-18 05:39:00,
2013-02-17 21:44:00,47.5,35.8,29.80,South,169,1.6,3.4,65,0.00,,,0.00,WSDL version 420,2013-02-18 05:44:00,
2013-02-17 21:49:00,47.4,37.0,29.80,South,180,2.4,3.6,68,0.00,,,0.00,WSDL version 420,2013-02-18 05:49:00,
2013-02-17 21:54:00,47.3,37.5,29.80,SSE,160,2.2,3.6,69,0.00,,,0.00,WSDL version 420,2013-02-18 05:54:00,
2013-02-17 21:59:00,47.3,38.0,29.80,South,170,1.9,2.9,70,0.00,,,0.00,WSDL version 420,2013-02-18 05:59:00,
2013-02-17 22:04:00,47.3,37.7,29.80,SSE,149,1.5,2.5,69,0.00,,,0.00,WSDL version 420,2013-02-18 06:04:00,
2013-02-17 22:09:00,47.2,37.5,29.80,SSE,163,0.7,2.5,69,0.00,,,0.00,WSDL version 420,2013-02-18 06:09:00,
2013-02-17 22:14:00,47.0,37.2,29.80,SSE,148,1.5,2.5,69,0.00,,,0.00,WSDL version 420,2013-02-18 06:14:00,
2013-02-17 22:19:00,46.9,37.9,29.80,South,180,1.7,2.5,71,0.00,,,0.00,WSDL version 420,2013-02-18 06:19:00,
2013-02-17 22:24:00,46.9,38.2,29.80,SSW,195,2.6,3.4,71,0.00,,,0.00,WSDL version 420,2013-02-18 06:24:00,
2013-02-17 22:29:00,46.8,37.9,29.80,South,183,1.5,3.4,71,0.00,,,0.00,WSDL version 420,2013-02-18 06:29:00,
2013-02-17 22:34:00,46.8,37.7,29.80,South,170,1.4,2.7,71,0.00,,,0.00,WSDL version 420,2013-02-18 06:34:00,
2013-02-17 22:39:00,46.7,37.5,29.80,South,177,0.9,2.5,70,0.00,,,0.00,WSDL version 420,2013-02-18 06:39:00,
2013-02-17 22:44:00,46.6,37.3,29.80,South,180,0.9,2.0,70,0.00,,,0.00,WSDL version 420,2013-02-18 06:44:00,
2013-02-17 22:49:00,46.6,37.4,29.80,South,188,1.1,2.7,71,0.00,,,0.00,WSDL version 420,2013-02-18 06:49:00,
2013-02-17 22:54:00,46.7,38.3,29.80,South,183,1.6,3.4,73,0.00,,,0.00,WSDL version 420,2013-02-18 06:54:00,
2013-02-17 22:59:00,46.8,38.8,29.80,SSE,168,2.0,3.4,74,0.00,,,0.00,WSDL version 420,2013-02-18 06:59:00,
2013-02-17 23:04:00,46.7,39.0,29.80,South,186,1.8,3.4,75,0.00,,,0.00,WSDL version 420,2013-02-18 07:04:00,
2013-02-17 23:09:00,46.7,39.4,29.80,South,185,1.9,3.1,76,0.00,,,0.00,WSDL version 420,2013-02-18 07:09:00,
2013-02-17 23:14:00,46.8,40.1,29.80,SSW,197,2.6,3.1,79,0.00,,,0.00,WSDL version 420,2013-02-18 07:14:00,
2013-02-17 23:19:00,46.9,41.3,29.80,SSW,193,2.5,4.0,82,0.00,,,0.00,WSDL version 420,2013-02-18 07:19:00,
2013-02-17 23:24:00,46.9,41.8,29.80,South,191,2.5,4.0,83,0.00,,,0.00,WSDL version 420,2013-02-18 07:24:00,
2013-02-17 23:29:00,46.9,42.2,29.80,South,186,2.4,3.6,83,0.00,,,0.00,WSDL version 420,2013-02-18 07:29:00,
2013-02-17 23:34:00,47.0,42.4,29.80,SSE,160,2.6,4.3,84,0.00,,,0.00,WSDL version 420,2013-02-18 07:34:00,
2013-02-17 23:39:00,46.9,42.5,29.80,South,180,2.3,4.3,84,0.00,,,0.00,WSDL version 420,2013-02-18 07:39:00,
2013-02-17 23:44:00,47.0,42.6,29.80,South,185,2.4,3.6,84,0.00,,,0.00,WSDL version 420,2013-02-18 07:44:00,
2013-02-17 23:49:00,46.9,42.2,29.80,South,186,1.9,3.4,83,0.00,,,0.00,WSDL version 420,2013-02-18 07:49:00,
2013-02-17 23:54:00,46.9,42.1,29.80,South,185,1.7,3.1,83,0.00,,,0.00,WSDL version 420,2013-02-18 07:54:00,
2013-02-17 23:59:00,46.8,41.8,29.80,SSE,163,2.1,3.8,82,0.00,,,0.00,WSDL version 420,2013-02-18 07:59:00,